Time;durP1;ratioP1;P1;durP2;ratioP2;P2;SDS_P1;SDS_P2;PMS_P1;PMS_P2;Temp;Humidity;BMP_temperature;BMP_pressure;BME280_temperature;BME280_humidity;BME280_pressure;Samples;Min_cycle;Max_cycle;Signal;HPM_P1;HPM_P2
2023/01/26 00:02:02;;;;;;;76.72;36.88;;;;;;;1.44;100.00;101515.28;5090149;28;20700;-71
2023/01/26 00:04:27;;;;;;;75.00;37.95;;;;;;;1.44;100.00;101498.84;5068848;28;20480;-71
2023/01/26 00:06:53;;;;;;;72.70;36.85;;;;;;;1.46;100.00;101502.22;5062526;28;20552;-71
2023/01/26 00:09:18;;;;;;;77.65;38.05;;;;;;;1.44;100.00;101491.47;5093877;28;20373;-71
2023/01/26 00:11:44;;;;;;;74.20;38.30;;;;;;;1.45;100.00;101495.06;5093903;28;20077;-71
2023/01/26 00:14:09;;;;;;;77.68;38.45;;;;;;;1.43;100.00;101487.06;5086134;28;20153;-71
2023/01/26 00:16:35;;;;;;;71.80;37.47;;;;;;;1.42;100.00;101482.66;5114229;28;20081;-71
2023/01/26 00:19:00;;;;;;;73.93;36.75;;;;;;;1.44;100.00;101486.00;5084371;28;20029;-71
2023/01/26 00:21:25;;;;;;;75.03;37.80;;;;;;;1.44;100.00;101479.69;5079229;28;20028;-71
2023/01/26 00:23:51;;;;;;;79.85;40.35;;;;;;;1.45;100.00;101474.03;5086742;28;20043;-71
2023/01/26 00:26:18;;;;;;;79.35;39.33;;;;;;;1.46;100.00;101483.06;5099055;28;20031;-71
2023/01/26 00:28:44;;;;;;;83.97;40.33;;;;;;;1.45;100.00;101474.03;5047019;28;20534;-71
2023/01/26 00:31:11;;;;;;;75.95;37.88;;;;;;;1.44;100.00;101475.06;5077688;28;20107;-71
2023/01/26 00:33:37;;;;;;;73.50;37.63;;;;;;;1.45;100.00;101468.53;5074897;28;20023;-71
2023/01/26 00:36:03;;;;;;;76.60;38.55;;;;;;;1.47;100.00;101460.94;5083212;28;20038;-71
2023/01/26 00:38:29;;;;;;;81.85;41.13;;;;;;;1.47;100.00;101460.09;5063776;28;20555;-71
2023/01/26 00:40:54;;;;;;;77.45;38.97;;;;;;;1.46;100.00;101453.78;5064625;28;20073;-71
2023/01/26 00:43:20;;;;;;;81.55;41.05;;;;;;;1.48;100.00;101456.34;5040041;28;20047;-71
2023/01/26 00:45:45;;;;;;;81.18;39.55;;;;;;;1.47;100.00;101451.88;5062232;28;20414;-71
2023/01/26 00:48:10;;;;;;;87.90;41.90;;;;;;;1.46;100.00;101448.31;5054911;28;20035;-71
2023/01/26 00:50:36;;;;;;;76.30;39.28;;;;;;;1.47;100.00;101444.50;5063094;28;20028;-71
2023/01/26 00:53:01;;;;;;;75.38;39.55;;;;;;;1.48;100.00;101445.38;5055139;28;20051;-71
2023/01/26 00:55:31;;;;;;;79.53;39.42;;;;;;;1.48;100.00;101445.38;5031518;28;20028;-71
2023/01/26 00:58:03;;;;;;;77.72;39.42;;;;;;;1.47;100.00;101441.78;5064105;28;20488;-71
2023/01/26 01:00:29;;;;;;;82.88;40.78;;;;;;;1.46;100.00;101440.09;5047586;28;20516;-71
2023/01/26 01:02:55;;;;;;;76.70;39.03;;;;;;;1.48;100.00;101440.75;5097027;28;20028;-71
2023/01/26 01:05:21;;;;;;;80.88;42.03;;;;;;;1.48;100.00;101438.00;5104992;28;20499;-71
2023/01/26 01:07:47;;;;;;;81.43;41.33;;;;;;;1.49;100.00;101439.69;5093007;28;20030;-71
2023/01/26 01:10:12;;;;;;;79.70;40.67;;;;;;;1.47;100.00;101433.56;5083335;28;20027;-71
2023/01/26 01:12:38;;;;;;;83.25;42.03;;;;;;;1.46;100.00;101437.38;5105041;28;20050;-71
2023/01/26 01:15:04;;;;;;;74.20;38.28;;;;;;;1.45;100.00;101438.44;5117852;28;20372;-71
2023/01/26 01:17:29;;;;;;;77.22;39.78;;;;;;;1.45;100.00;101445.78;5105072;28;20027;-71
2023/01/26 01:19:54;;;;;;;74.70;38.97;;;;;;;1.45;100.00;101441.16;5065873;28;20036;-71
2023/01/26 01:22:20;;;;;;;93.15;46.72;;;;;;;1.47;100.00;101451.88;5079269;28;20040;-71
2023/01/26 01:24:45;;;;;;;88.82;44.22;;;;;;;1.45;100.00;101445.78;5079560;28;20511;-71
2023/01/26 01:27:11;;;;;;;86.95;42.28;;;;;;;1.46;100.00;101462.00;5106687;28;20024;-71
2023/01/26 01:29:37;;;;;;;88.72;45.05;;;;;;;1.43;100.00;101461.59;5094648;28;20058;-71
2023/01/26 01:32:02;;;;;;;82.47;42.17;;;;;;;1.43;100.00;101464.34;5064520;28;20035;-71
2023/01/26 01:34:28;;;;;;;78.43;41.60;;;;;;;1.46;100.00;101456.53;5065888;28;20115;-71
2023/01/26 01:36:53;;;;;;;81.28;40.92;;;;;;;1.46;100.00;101453.78;5081767;28;20028;-71
2023/01/26 01:39:19;;;;;;;81.43;41.83;;;;;;;1.46;100.00;101461.16;5052649;28;20031;-71
2023/01/26 01:41:44;;;;;;;84.10;41.90;;;;;;;1.42;100.00;101457.16;5108252;28;20024;-71
2023/01/26 01:44:20;;;;;;;78.82;38.47;;;;;;;1.45;100.00;101457.59;5039820;28;20100;-71
2023/01/26 01:46:48;;;;;;;74.90;37.53;;;;;;;1.42;100.00;101455.28;5062919;28;20032;-71
2023/01/26 01:49:15;;;;;;;80.03;40.28;;;;;;;1.42;100.00;101447.06;5062916;28;20047;-71
2023/01/26 01:51:49;;;;;;;70.68;37.33;;;;;;;1.44;100.00;101444.09;5071898;28;20031;-71
2023/01/26 01:54:17;;;;;;;70.15;36.45;;;;;;;1.46;100.00;101437.38;5082901;28;20491;-71
2023/01/26 01:56:45;;;;;;;70.63;37.00;;;;;;;1.46;100.00;101426.41;5115824;28;20028;-71
2023/01/26 01:59:11;;;;;;;65.55;34.85;;;;;;;1.44;100.00;101417.56;5067167;28;20024;-71
2023/01/26 02:01:36;;;;;;;71.00;36.42;;;;;;;1.47;100.00;101410.81;5092314;28;20055;-71
2023/01/26 02:04:03;;;;;;;66.57;35.40;;;;;;;1.45;100.00;101391.03;5067566;28;20028;-71
2023/01/26 02:06:49;;;;;;;68.70;36.60;;;;;;;1.45;100.00;101402.84;5077067;28;20032;-71
2023/01/26 02:12:01;;;;;;;75.53;39.95;;;;;;;1.44;100.00;101406.63;5070514;28;20046;-72
2023/01/26 02:14:27;;;;;;;66.38;35.67;;;;;;;1.44;100.00;101401.13;5046289;28;20416;-71
2023/01/26 02:16:52;;;;;;;68.68;36.03;;;;;;;1.45;100.00;101402.84;5053889;28;20027;-71
2023/01/26 02:19:34;;;;;;;68.35;36.00;;;;;;;1.45;100.00;101397.38;5101922;28;20082;-71
2023/01/26 02:22:03;;;;;;;66.72;35.03;;;;;;;1.44;100.00;101395.66;5090906;28;20032;-71
2023/01/26 02:24:29;;;;;;;61.70;32.67;;;;;;;1.44;100.00;101398.41;5061602;28;20024;-71
2023/01/26 02:26:54;;;;;;;62.78;34.70;;;;;;;1.46;100.00;101385.34;5086105;28;20015;-71
2023/01/26 02:29:20;;;;;;;79.22;38.78;;;;;;;1.46;100.00;101379.03;5079114;28;20073;-71
2023/01/26 02:31:46;;;;;;;89.35;44.22;;;;;;;1.47;100.00;101378.81;5084231;28;20047;-71
2023/01/26 02:34:11;;;;;;;75.03;38.20;;;;;;;1.44;100.00;101381.13;5068293;28;20035;-71
2023/01/26 02:36:36;;;;;;;72.03;37.33;;;;;;;1.44;100.00;101378.41;5035793;28;20032;-71
2023/01/26 02:39:22;;;;;;;70.78;37.40;;;;;;;1.45;100.00;101378.22;5094682;28;20060;-71
2023/01/26 02:44:32;;;;;;;67.28;35.08;;;;;;;1.46;100.00;101370.81;5107273;28;20042;-71
2023/01/26 02:46:58;;;;;;;65.78;35.67;;;;;;;1.47;100.00;101367.88;5081072;28;20031;-71
2023/01/26 02:52:08;;;;;;;63.95;34.20;;;;;;;1.48;100.00;101364.09;5096887;28;20020;-71
2023/01/26 02:57:17;;;;;;;68.50;35.40;;;;;;;1.49;100.00;101349.34;5080350;28;20024;-71
2023/01/26 02:59:43;;;;;;;61.28;33.55;;;;;;;1.50;100.00;101351.00;5087666;28;20034;-71
2023/01/26 03:02:08;;;;;;;62.45;34.08;;;;;;;1.50;100.00;101339.22;5074177;28;20028;-71
2023/01/26 03:04:34;;;;;;;63.40;34.53;;;;;;;1.50;100.00;101339.22;5085922;28;20031;-71
2023/01/26 03:06:59;;;;;;;59.88;32.78;;;;;;;1.48;100.00;101333.97;5081411;28;20376;-71
2023/01/26 03:09:25;;;;;;;61.05;32.55;;;;;;;1.48;100.00;101342.19;5084385;28;20032;-72
2023/01/26 03:11:50;;;;;;;60.97;33.50;;;;;;;1.48;100.00;101342.19;5060614;28;20028;-71
2023/01/26 03:14:15;;;;;;;61.72;33.25;;;;;;;1.48;100.00;101336.72;5097672;28;20344;-71
2023/01/26 03:16:41;;;;;;;60.72;34.17;;;;;;;1.51;100.00;101340.91;5072777;28;20061;-71
2023/01/26 03:29:46;;;;;;;61.20;33.33;;;;;;;1.53;100.00;101334.19;5079725;28;20087;-71
2023/01/26 03:32:11;;;;;;;63.97;33.22;;;;;;;1.53;100.00;101333.31;5072652;28;20538;-71
2023/01/26 03:34:37;;;;;;;65.63;34.83;;;;;;;1.53;100.00;101328.72;5059457;28;20031;-71
2023/01/26 03:37:03;;;;;;;58.88;32.40;;;;;;;1.54;100.00;101330.38;5072815;28;20047;-71
2023/01/26 03:59:08;;;;;;;81.60;41.03;;;;;;;1.62;100.00;101325.75;5064136;28;20123;-71
2023/01/26 04:01:38;;;;;;;70.80;37.35;;;;;;;1.62;100.00;101323.84;5055008;28;20028;-71
2023/01/26 04:09:32;;;;;;;67.78;36.58;;;;;;;1.65;100.00;101317.09;5095187;28;20024;-71
2023/01/26 04:11:58;;;;;;;73.30;37.25;;;;;;;1.66;100.00;101321.50;5067350;28;20022;-71
2023/01/26 04:22:39;;;;;;;67.93;35.78;;;;;;;1.70;100.00;101303.56;5070967;28;20020;-71
2023/01/26 04:25:07;;;;;;;74.18;38.67;;;;;;;1.72;100.00;101304.19;5087716;28;20110;-71
2023/01/26 04:27:33;;;;;;;66.32;36.63;;;;;;;1.74;100.00;101297.44;5071008;28;20063;-71
2023/01/26 04:30:00;;;;;;;68.63;36.55;;;;;;;1.75;100.00;101298.28;5043752;28;20106;-71
2023/01/26 04:32:26;;;;;;;71.88;38.15;;;;;;;1.77;100.00;101301.66;5091436;28;20103;-71
2023/01/26 04:34:51;;;;;;;78.72;39.38;;;;;;;1.82;100.00;101301.84;5067495;28;20061;-72
2023/01/26 04:37:17;;;;;;;78.90;39.35;;;;;;;1.86;100.00;101296.78;5079885;28;20110;-71
2023/01/26 04:39:42;;;;;;;66.43;35.40;;;;;;;1.86;100.00;101305.81;5084387;28;20028;-71
2023/01/26 04:42:08;;;;;;;68.50;37.83;;;;;;;1.90;100.00;101306.25;5057696;28;20029;-71
2023/01/26 04:44:33;;;;;;;65.68;36.55;;;;;;;1.91;100.00;101297.81;5080778;28;20039;-71
2023/01/26 04:46:59;;;;;;;66.45;36.40;;;;;;;1.94;100.00;101308.31;5070108;28;20538;-71
2023/01/26 04:49:24;;;;;;;72.38;37.25;;;;;;;1.99;100.00;101303.03;5070627;28;20024;-71
2023/01/26 04:51:50;;;;;;;76.43;39.13;;;;;;;2.04;100.00;101313.34;5069887;28;20069;-71
2023/01/26 04:54:15;;;;;;;70.68;36.80;;;;;;;2.07;100.00;101317.56;5084327;28;20511;-71
2023/01/26 04:56:40;;;;;;;66.85;35.92;;;;;;;2.10;100.00;101312.47;5053405;28;20081;-72
2023/01/26 04:59:06;;;;;;;63.03;33.65;;;;;;;2.14;100.00;101312.88;5075960;28;20028;-71
2023/01/26 05:01:32;;;;;;;66.47;35.47;;;;;;;2.21;100.00;101324.66;5077611;28;20592;-71
2023/01/26 05:04:00;;;;;;;73.05;35.15;;;;;;;2.22;100.00;101323.56;5079105;28;20031;-71
2023/01/26 05:06:26;;;;;;;71.05;35.30;;;;;;;2.31;100.00;101325.00;5102053;28;20028;-71
2023/01/26 05:08:51;;;;;;;64.22;33.25;;;;;;;2.36;100.00;101327.09;5068209;28;20089;-71
2023/01/26 05:11:17;;;;;;;61.53;31.95;;;;;;;2.37;100.00;101313.19;5052241;28;20439;-71
2023/01/26 05:13:42;;;;;;;61.80;31.77;;;;;;;2.44;100.00;101318.59;5063105;28;20115;-71
2023/01/26 05:16:08;;;;;;;57.45;30.70;;;;;;;2.48;100.00;101319.88;5061191;28;20027;-72
2023/01/26 05:18:33;;;;;;;61.92;31.48;;;;;;;2.57;100.00;101324.00;5091597;28;20081;-71
2023/01/26 05:20:59;;;;;;;59.15;30.98;;;;;;;2.57;100.00;101317.69;5075315;28;20027;-71
2023/01/26 05:23:24;;;;;;;59.22;31.48;;;;;;;2.69;100.00;101324.13;5052611;28;20499;-71
2023/01/26 05:25:50;;;;;;;52.38;28.52;;;;;;;2.68;100.00;101312.31;5099945;28;20072;-71
2023/01/26 05:28:15;;;;;;;56.45;28.77;;;;;;;2.73;100.00;101321.78;5095214;28;20028;-71
2023/01/26 05:30:41;;;;;;;63.38;29.55;;;;;;;2.72;100.00;101323.69;5068970;28;20470;-71
2023/01/26 05:33:07;;;;;;;55.28;28.02;;;;;;;2.73;100.00;101319.91;5083006;28;20028;-71
2023/01/26 05:35:32;;;;;;;54.30;28.42;;;;;;;2.77;100.00;101318.38;5053818;28;20051;-71
2023/01/26 05:37:58;;;;;;;55.20;27.80;;;;;;;2.80;100.00;101320.66;5069523;28;20051;-72
2023/01/26 05:40:24;;;;;;;51.97;26.35;;;;;;;2.84;100.00;101315.56;5099320;28;20035;-71
2023/01/26 05:42:50;;;;;;;50.65;26.52;;;;;;;2.88;100.00;101317.66;5045688;28;20020;-71
2023/01/26 05:45:16;;;;;;;50.30;26.33;;;;;;;2.97;100.00;101317.38;5052620;28;20483;-72
2023/01/26 05:47:43;;;;;;;49.03;26.42;;;;;;;2.96;100.00;101318.47;5049306;28;20032;-71
2023/01/26 05:50:09;;;;;;;48.08;25.52;;;;;;;2.99;100.00;101316.09;5079426;28;20062;-71
2023/01/26 05:52:34;;;;;;;49.78;26.20;;;;;;;3.04;100.00;101312.69;5065734;28;20631;-71
2023/01/26 05:55:00;;;;;;;42.58;24.10;;;;;;;3.07;100.00;101323.22;5095773;28;20118;-72
2023/01/26 05:57:26;;;;;;;47.53;26.42;;;;;;;3.14;100.00;101322.06;5095813;28;20027;-72
2023/01/26 05:59:51;;;;;;;49.42;24.75;;;;;;;3.12;100.00;101321.47;5079089;28;20036;-71
2023/01/26 06:02:17;;;;;;;43.03;23.65;;;;;;;3.14;100.00;101318.50;5062079;28;20388;-72
2023/01/26 06:04:42;;;;;;;43.78;23.00;;;;;;;3.20;100.00;101324.97;5075243;28;20369;-72
2023/01/26 06:07:08;;;;;;;42.83;23.77;;;;;;;3.17;100.00;101325.44;5095654;28;20055;-72
2023/01/26 06:09:34;;;;;;;40.97;22.98;;;;;;;3.24;100.00;101334.47;5095608;28;20035;-71
2023/01/26 06:11:59;;;;;;;41.70;23.23;;;;;;;3.23;100.00;101322.66;5097053;28;20095;-71
2023/01/26 06:14:25;;;;;;;43.28;23.23;;;;;;;3.25;100.00;101323.25;5091958;28;20023;-71
2023/01/26 06:16:53;;;;;;;45.35;23.50;;;;;;;3.30;100.00;101328.06;5108878;28;20031;-72
2023/01/26 06:19:18;;;;;;;41.67;23.30;;;;;;;3.31;100.00;101332.47;5065518;28;20410;-71
2023/01/26 06:21:43;;;;;;;43.67;23.52;;;;;;;3.29;100.00;101331.88;5048285;28;20020;-71
2023/01/26 06:24:09;;;;;;;43.28;22.27;;;;;;;3.33;100.00;101333.94;5082111;28;20464;-72
2023/01/26 06:26:34;;;;;;;39.50;21.83;;;;;;;3.35;100.00;101333.72;5048394;28;20023;-71
2023/01/26 06:29:00;;;;;;;38.38;20.52;;;;;;;3.34;100.00;101332.03;5081723;28;20178;-72
2023/01/26 06:31:28;;;;;;;36.15;19.88;;;;;;;3.38;100.00;101336.00;5080826;28;20038;-72
2023/01/26 06:33:53;;;;;;;38.70;21.23;;;;;;;3.39;100.00;101334.09;5078294;28;20598;-71
2023/01/26 06:36:19;;;;;;;36.28;19.88;;;;;;;3.41;100.00;101340.22;5077185;28;20035;-71
2023/01/26 06:38:49;;;;;;;45.25;22.98;;;;;;;3.43;100.00;101338.91;5078012;28;20508;-72
2023/01/26 06:41:14;;;;;;;38.47;20.35;;;;;;;3.49;100.00;101343.50;5078265;28;20050;-72
2023/01/26 06:43:43;;;;;;;43.55;22.33;;;;;;;3.53;100.00;101344.72;5057933;28;20020;-72
2023/01/26 06:46:08;;;;;;;38.95;20.58;;;;;;;3.53;100.00;101338.38;5065587;28;20052;-71
2023/01/26 06:48:34;;;;;;;34.58;18.33;;;;;;;3.55;100.00;101345.34;5061188;28;20473;-72
2023/01/26 06:51:16;;;;;;;32.85;18.70;;;;;;;3.56;100.00;101348.91;5094637;28;20115;-71
2023/01/26 06:53:43;;;;;;;33.50;17.90;;;;;;;3.58;100.00;101353.13;5091580;28;20027;-72
2023/01/26 06:56:08;;;;;;;31.42;17.33;;;;;;;3.61;100.00;101354.56;5071375;28;20463;-72
2023/01/26 06:58:34;;;;;;;32.60;17.50;;;;;;;3.66;100.00;101354.75;5047345;28;20032;-72
2023/01/26 07:00:59;;;;;;;31.55;16.48;;;;;;;3.67;100.00;101350.91;5068103;28;20050;-72
2023/01/26 07:03:25;;;;;;;31.48;16.98;;;;;;;3.64;100.00;101356.88;5074632;28;20035;-72
2023/01/26 07:05:50;;;;;;;27.33;16.00;;;;;;;3.66;100.00;101346.50;5052754;28;20032;-72
2023/01/26 07:08:16;;;;;;;29.85;16.13;;;;;;;3.64;100.00;101362.34;5060769;28;20031;-72
2023/01/26 07:10:41;;;;;;;29.38;16.98;;;;;;;3.68;100.00;101354.53;5079998;28;20049;-72
2023/01/26 07:13:07;;;;;;;24.00;14.52;;;;;;;3.67;100.00;101356.41;5047152;28;20020;-72
2023/01/26 07:15:32;;;;;;;30.30;17.38;;;;;;;3.70;100.00;101360.59;5096992;28;20482;-72
2023/01/26 07:17:58;;;;;;;35.47;18.75;;;;;;;3.70;100.00;101363.34;5093870;28;20054;-72
2023/01/26 07:20:23;;;;;;;29.27;17.83;;;;;;;3.70;100.00;101361.44;5087778;28;20083;-75
2023/01/26 07:22:49;;;;;;;36.63;19.67;;;;;;;3.70;100.00;101364.19;5065695;28;20089;-68
2023/01/26 07:25:15;;;;;;;30.25;18.73;;;;;;;3.74;100.00;101359.94;5073787;28;20032;-72
2023/01/26 07:27:41;;;;;;;29.77;18.13;;;;;;;3.74;100.00;101359.94;5109518;28;20115;-74
2023/01/26 07:30:07;;;;;;;34.35;19.50;;;;;;;3.78;100.00;101358.41;5071945;28;20028;-73
2023/01/26 07:32:33;;;;;;;37.67;20.02;;;;;;;3.78;100.00;101363.88;5061569;28;20024;-72
2023/01/26 07:34:58;;;;;;;37.28;20.73;;;;;;;3.82;100.00;101364.28;5076535;28;20032;-71
2023/01/26 07:37:27;;;;;;;35.63;19.67;;;;;;;3.84;100.00;101361.31;5107588;28;20048;-71
2023/01/26 07:39:53;;;;;;;30.33;18.60;;;;;;;3.90;100.00;101374.13;5066882;28;20530;-72
2023/01/26 07:42:18;;;;;;;32.20;19.10;;;;;;;3.89;100.00;101375.19;5057172;28;20039;-72
2023/01/26 07:44:44;;;;;;;38.13;19.73;;;;;;;3.91;100.00;101373.91;5080311;28;20442;-72
2023/01/26 07:47:09;;;;;;;35.72;19.48;;;;;;;3.94;100.00;101378.09;5067070;28;20024;-72
2023/01/26 07:49:35;;;;;;;35.30;19.45;;;;;;;3.93;100.00;101381.94;5063683;28;20077;-72
2023/01/26 07:52:00;;;;;;;32.50;17.23;;;;;;;3.95;100.00;101391.59;5050691;28;20030;-72
2023/01/26 07:54:26;;;;;;;27.75;16.30;;;;;;;3.98;100.00;101396.69;5087477;28;20032;-72
2023/01/26 07:56:53;;;;;;;26.92;14.82;;;;;;;4.03;100.00;101395.97;5093808;28;20052;-72
2023/01/26 07:59:21;;;;;;;24.77;13.63;;;;;;;4.01;100.00;101401.72;5059766;28;20031;-72
2023/01/26 08:01:50;;;;;;;22.23;13.23;;;;;;;4.04;100.00;101405.91;5080612;28;20031;-72
2023/01/26 08:04:15;;;;;;;21.55;12.85;;;;;;;4.08;100.00;101403.53;5043711;28;20123;-72
2023/01/26 08:06:41;;;;;;;22.10;12.88;;;;;;;4.09;100.00;101402.47;5056673;28;20028;-72
2023/01/26 08:09:06;;;;;;;21.02;11.80;;;;;;;4.07;100.00;101415.59;5067011;28;20452;-72
2023/01/26 08:11:32;;;;;;;20.33;10.80;;;;;;;4.09;100.00;101408.78;5059810;28;20032;-72
2023/01/26 08:13:57;;;;;;;18.50;10.73;;;;;;;4.12;100.00;101416.56;5075041;28;20051;-72
2023/01/26 08:16:23;;;;;;;22.17;10.63;;;;;;;4.12;100.00;101413.81;5082893;28;20032;-72
2023/01/26 08:18:48;;;;;;;21.42;10.15;;;;;;;4.15;100.00;101424.41;5060007;28;20032;-72
2023/01/26 08:21:16;;;;;;;20.23;9.45;;;;;;;4.18;100.00;101418.44;5085108;28;20028;-72
2023/01/26 08:23:41;;;;;;;18.05;9.25;;;;;;;4.12;100.00;101429.50;5049086;28;20512;-72
2023/01/26 08:26:12;;;;;;;15.88;8.05;;;;;;;4.19;100.00;101433.84;5079936;28;20101;-72
2023/01/26 08:28:37;;;;;;;12.38;7.57;;;;;;;4.24;100.00;101438.66;5110445;28;20035;-72
2023/01/26 08:31:11;;;;;;;17.65;6.65;;;;;;;4.23;100.00;101442.47;5032119;28;20096;-72
2023/01/26 08:33:39;;;;;;;11.75;6.47;;;;;;;4.23;100.00;101440.59;5077039;28;20020;-72
2023/01/26 08:36:06;;;;;;;8.40;5.80;;;;;;;4.27;100.00;101451.13;5094464;28;20023;-72
2023/01/26 08:38:32;;;;;;;7.32;4.80;;;;;;;4.25;100.00;101449.41;5115124;28;20150;-72
2023/01/26 08:40:58;;;;;;;11.52;4.80;;;;;;;4.24;100.00;101456.00;5076301;28;20032;-72
2023/01/26 08:43:24;;;;;;;9.23;4.97;;;;;;;4.24;100.00;101466.16;5071220;28;20032;-71
2023/01/26 08:45:49;;;;;;;6.80;4.55;;;;;;;4.25;100.00;101465.94;5043302;28;20054;-72
2023/01/26 08:48:15;;;;;;;11.50;5.47;;;;;;;4.29;100.00;101473.72;5076588;28;20035;-72
2023/01/26 08:50:40;;;;;;;10.50;4.70;;;;;;;4.30;100.00;101470.75;5093672;28;20031;-72
2023/01/26 08:53:06;;;;;;;9.15;4.85;;;;;;;4.31;100.00;101468.84;5086181;28;20016;-72
2023/01/26 08:55:32;;;;;;;11.25;4.25;;;;;;;4.30;100.00;101479.00;5090825;28;20027;-71
2023/01/26 08:57:57;;;;;;;8.70;4.60;;;;;;;4.38;100.00;101486.13;5097654;28;20361;-72
2023/01/26 09:00:23;;;;;;;10.57;4.63;;;;;;;4.40;100.00;101483.94;5096908;28;20039;-71
2023/01/26 09:02:49;;;;;;;11.38;5.00;;;;;;;4.38;100.00;101480.59;5062541;28;20028;-71
2023/01/26 09:05:15;;;;;;;9.00;4.90;;;;;;;4.40;100.00;101493.06;5093135;28;20035;-72
2023/01/26 09:07:40;;;;;;;9.52;4.47;;;;;;;4.40;100.00;101494.94;5116583;28;20031;-72
2023/01/26 09:10:07;;;;;;;12.32;4.25;;;;;;;4.41;100.00;101513.16;5062486;28;20032;-72
2023/01/26 09:12:32;;;;;;;11.32;4.20;;;;;;;4.45;100.00;101511.63;5073968;28;20050;-71
2023/01/26 09:14:57;;;;;;;10.60;4.40;;;;;;;4.47;100.00;101512.22;5061564;28;20591;-72
2023/01/26 09:17:23;;;;;;;13.88;4.07;;;;;;;4.47;100.00;101509.47;5057791;28;20031;-72
2023/01/26 09:19:48;;;;;;;13.82;3.70;;;;;;;4.45;100.00;101512.44;5081350;28;20036;-72
2023/01/26 09:22:14;;;;;;;12.70;5.63;;;;;;;4.47;100.00;101514.97;5045637;28;20032;-71
2023/01/26 09:24:39;;;;;;;12.02;4.78;;;;;;;4.50;100.00;101510.94;5041943;28;20032;-71
2023/01/26 09:27:05;;;;;;;13.80;5.10;;;;;;;4.48;100.00;101517.53;5053127;28;20442;-71
2023/01/26 09:29:30;;;;;;;13.60;4.82;;;;;;;4.51;100.00;101518.94;5048486;28;20036;-71
2023/01/26 09:31:56;;;;;;;12.52;4.97;;;;;;;4.55;100.00;101522.94;5074247;28;20068;-72
2023/01/26 09:34:24;;;;;;;13.13;4.85;;;;;;;4.55;100.00;101522.94;5084633;28;20039;-71
2023/01/26 09:36:49;;;;;;;13.60;4.47;;;;;;;4.52;100.00;101539.91;5112815;28;20430;-72
2023/01/26 09:39:15;;;;;;;13.98;4.43;;;;;;;4.56;100.00;101546.63;5061932;28;20032;-72
2023/01/26 09:41:49;;;;;;;13.15;3.72;;;;;;;4.58;100.00;101540.91;5062878;28;20036;-72
2023/01/26 09:44:18;;;;;;;12.90;4.13;;;;;;;4.59;100.00;101539.81;5092308;28;20392;-72
2023/01/26 09:46:59;;;;;;;13.18;3.53;;;;;;;4.59;100.00;101539.81;5056465;28;20032;-71
2023/01/26 09:49:28;;;;;;;11.63;3.33;;;;;;;4.63;100.00;101541.88;5071172;28;20740;-71
2023/01/26 09:52:05;;;;;;;11.20;3.00;;;;;;;4.54;100.00;101535.03;5052792;28;20110;-72
2023/01/26 09:54:38;;;;;;;14.05;3.17;;;;;;;4.57;100.00;101536.44;5063730;28;20027;-71
2023/01/26 09:57:15;;;;;;;7.60;2.92;;;;;;;4.61;100.00;101543.19;5081691;28;20039;-72
2023/01/26 09:59:51;;;;;;;13.75;3.35;;;;;;;4.61;100.00;101541.28;5081527;28;20027;-71
2023/01/26 10:02:32;;;;;;;12.43;2.85;;;;;;;4.65;100.00;101539.75;5094269;28;20465;-71
2023/01/26 10:04:59;;;;;;;9.18;2.65;;;;;;;4.67;100.00;101532.09;5066311;28;20034;-72
2023/01/26 10:07:25;;;;;;;12.05;2.47;;;;;;;4.65;100.00;101534.25;5081846;28;20032;-72
2023/01/26 10:09:50;;;;;;;9.02;2.70;;;;;;;4.68;100.00;101547.56;5048610;28;20040;-72
2023/01/26 10:12:16;;;;;;;12.02;3.05;;;;;;;4.66;100.00;101546.94;5082023;28;20480;-72
2023/01/26 10:15:02;;;;;;;8.68;2.40;;;;;;;4.68;100.00;101541.19;5116890;28;20360;-71
2023/01/26 10:17:31;;;;;;;14.35;2.40;;;;;;;4.68;100.00;101542.03;5058558;28;20032;-71
2023/01/26 10:20:00;;;;;;;12.25;2.47;;;;;;;4.74;100.00;101526.53;5080883;28;20079;-71
2023/01/26 10:22:42;;;;;;;9.38;2.25;;;;;;;4.75;100.00;101532.88;5077106;28;20026;-71
2023/01/26 10:25:19;;;;;;;14.73;3.10;;;;;;;4.81;100.00;101542.94;5058557;28;20028;-72
2023/01/26 10:27:44;;;;;;;8.35;2.50;;;;;;;4.86;100.00;101541.19;5084695;28;20032;-72
2023/01/26 10:30:17;;;;;;;9.15;2.15;;;;;;;4.89;100.00;101548.13;5102877;27;20159;-72
2023/01/26 10:32:43;;;;;;;9.40;2.63;;;;;;;4.95;100.00;101546.38;5067838;28;20024;-72
2023/01/26 10:35:24;;;;;;;12.18;3.20;;;;;;;4.99;100.00;101562.22;5072431;28;20032;-72
2023/01/26 10:37:51;;;;;;;6.75;1.88;;;;;;;5.01;100.00;101554.53;5084590;27;20070;-72
2023/01/26 10:40:17;;;;;;;8.43;2.22;;;;;;;5.03;100.00;101571.66;5060656;28;20023;-72
2023/01/26 10:42:52;;;;;;;10.48;2.10;;;;;;;5.05;100.00;101558.53;5098031;28;20057;-72
2023/01/26 10:45:30;;;;;;;7.90;2.10;;;;;;;5.08;100.00;101562.72;5082015;28;20043;-72
2023/01/26 10:48:22;;;;;;;12.10;2.22;;;;;;;5.04;100.00;101575.25;5113128;28;20028;-71
2023/01/26 10:50:49;;;;;;;11.65;2.40;;;;;;;5.09;100.00;101565.22;5063041;28;20077;-71
2023/01/26 10:53:28;;;;;;;10.32;3.08;;;;;;;5.05;100.00;101561.28;5082285;28;20031;-72
2023/01/26 10:56:02;;;;;;;14.40;3.60;;;;;;;5.06;100.00;101568.44;5092428;28;20036;-72
2023/01/26 10:58:47;;;;;;;27.20;8.65;;;;;;;5.04;100.00;101556.84;5081333;28;20030;-71
2023/01/26 11:01:14;;;;;;;14.95;3.50;;;;;;;5.01;100.00;101560.03;5060950;28;20392;-71
2023/01/26 11:03:40;;;;;;;13.75;3.90;;;;;;;5.10;100.00;101552.34;5081132;28;20081;-71
2023/01/26 11:06:06;;;;;;;10.88;2.90;;;;;;;5.10;100.00;101553.16;5075098;28;20036;-72
2023/01/26 11:08:33;;;;;;;13.68;2.97;;;;;;;5.11;100.00;101537.47;5074606;28;20032;-71
2023/01/26 11:10:59;;;;;;;11.80;2.40;;;;;;;5.13;100.00;101552.69;5062574;28;20357;-71
2023/01/26 11:13:24;;;;;;;19.17;2.70;;;;;;;5.13;100.00;101541.69;5059478;28;20082;-71
2023/01/26 11:16:03;;;;;;;14.98;2.60;;;;;;;5.19;100.00;101530.81;5080887;28;20024;-71
2023/01/26 11:18:52;;;;;;;14.88;2.72;;;;;;;5.25;100.00;101527.13;5055146;28;20078;-71
2023/01/26 11:22:00;;;;;;;14.02;2.70;;;;;;;5.26;100.00;101531.53;5044258;28;20032;-71
2023/01/26 11:24:50;;;;;;;15.23;2.78;;;;;;;5.32;100.00;101525.09;5062763;28;20043;-72
2023/01/26 11:27:33;;;;;;;17.23;2.95;;;;;;;5.33;100.00;101533.13;5080316;28;20024;-72
2023/01/26 11:29:59;;;;;;;18.52;3.13;;;;;;;5.40;100.00;101510.97;5087622;28;20032;-71
2023/01/26 11:32:39;;;;;;;19.38;3.13;;;;;;;5.43;100.00;101535.31;5074636;28;20049;-72
2023/01/26 11:35:08;;;;;;;23.10;3.40;;;;;;;5.41;100.00;101518.19;5093615;28;20132;-72
2023/01/26 11:37:44;;;;;;;16.27;3.30;;;;;;;5.38;100.00;101513.16;5111634;28;20101;-72
2023/01/26 11:40:17;;;;;;;14.32;2.90;;;;;;;5.44;100.00;101520.47;5097798;28;20054;-72
2023/01/26 11:42:49;;;;;;;12.45;3.00;;;;;;;5.46;100.00;101500.94;5079159;28;20035;-72
2023/01/26 11:45:33;;;;;;;19.92;3.17;;;;;;;5.51;100.00;101515.69;5063673;28;20767;-72
2023/01/26 11:48:12;;;;;;;21.00;3.28;;;;;;;5.51;100.00;101515.69;5106771;28;20050;-72
2023/01/26 11:51:10;;;;;;;17.48;2.92;;;;;;;5.55;100.00;101505.88;5077048;28;20032;-72
2023/01/26 11:53:53;;;;;;;20.08;3.33;;;;;;;5.59;100.00;101503.50;5108623;28;20044;-71
2023/01/26 11:56:49;;;;;;;17.85;3.30;;;;;;;5.64;100.00;101506.38;5093866;28;20035;-72
2023/01/26 11:59:24;;;;;;;13.70;2.78;;;;;;;5.77;100.00;101494.31;5110164;28;20059;-71
2023/01/26 12:02:00;;;;;;;20.65;3.45;;;;;;;5.79;100.00;101511.41;5080894;28;20030;-71
2023/01/26 12:04:27;;;;;;;19.58;3.00;;;;;;;5.81;100.00;101503.75;5063769;28;20020;-72
2023/01/26 12:07:26;;;;;;;18.95;4.07;;;;;;;5.85;100.00;101507.75;5048948;28;20430;-72
2023/01/26 12:09:51;;;;;;;18.77;3.72;;;;;;;5.87;100.00;101513.84;5077307;28;20081;-72
2023/01/26 12:12:30;;;;;;;20.33;3.90;;;;;;;5.88;100.00;101514.66;5071693;28;20032;-72